createdAt,value
2023-01-29T00:02:35.000Z,53.37
2023-01-29T00:07:35.000Z,54.04
2023-01-29T00:12:35.000Z,54.05
2023-01-29T00:17:35.000Z,55.48
2023-01-29T00:22:34.000Z,55.01
2023-01-29T00:27:35.000Z,53.83
2023-01-29T00:32:35.000Z,53.83
2023-01-29T00:37:35.000Z,53.68
2023-01-29T00:42:35.000Z,53.88
2023-01-29T00:47:34.000Z,54.26
2023-01-29T00:52:35.000Z,52.7
2023-01-29T00:57:35.000Z,56.74
2023-01-29T01:02:35.000Z,54.53
2023-01-29T01:12:35.000Z,53.42
2023-01-29T01:17:35.000Z,56.36
2023-01-29T01:22:34.000Z,53.35
2023-01-29T01:27:35.000Z,53.96
2023-01-29T01:32:34.000Z,52.86
2023-01-29T01:37:35.000Z,54.69
2023-01-29T01:42:34.000Z,51.17
2023-01-29T01:47:35.000Z,51.17
2023-01-29T01:52:35.000Z,51.65
2023-01-29T01:57:35.000Z,54.09
2023-01-29T02:02:35.000Z,53.85
2023-01-29T02:07:34.000Z,51.92
2023-01-29T02:12:35.000Z,52.21
2023-01-29T02:17:34.000Z,52.09
2023-01-29T02:22:35.000Z,51.96
2023-01-29T02:27:34.000Z,50.53
2023-01-29T02:32:35.000Z,48.25
2023-01-29T02:37:35.000Z,43.05
2023-01-29T02:42:34.000Z,43.76
2023-01-29T02:47:35.000Z,40.9
2023-01-29T02:52:35.000Z,40.51
2023-01-29T03:02:35.000Z,39.39
2023-01-29T03:07:34.000Z,37.25
2023-01-29T03:12:35.000Z,38.26
2023-01-29T03:17:34.000Z,39.31
2023-01-29T03:22:34.000Z,38.44
2023-01-29T03:27:34.000Z,38.11
2023-01-29T03:32:34.000Z,38.21
2023-01-29T03:37:35.000Z,36.4
2023-01-29T03:42:34.000Z,37.42
2023-01-29T03:47:34.000Z,40.56
2023-01-29T03:52:34.000Z,41.04
2023-01-29T03:57:34.000Z,43.64
2023-01-29T04:02:34.000Z,41.39
2023-01-29T04:07:35.000Z,41.39
2023-01-29T04:12:34.000Z,44.3
2023-01-29T04:17:34.000Z,40.31
2023-01-29T04:22:35.000Z,39.91
2023-01-29T04:27:34.000Z,38.28
2023-01-29T04:32:35.000Z,39.15
2023-01-29T04:37:35.000Z,39.01
2023-01-29T04:42:35.000Z,35.19
2023-01-29T04:47:34.000Z,32.7
2023-01-29T04:52:35.000Z,35.13
2023-01-29T05:02:34.000Z,31.7
2023-01-29T05:07:35.000Z,31.7
2023-01-29T05:12:35.000Z,32.71
2023-01-29T05:17:35.000Z,29.43
2023-01-29T05:22:35.000Z,28.51
2023-01-29T05:27:35.000Z,27.75
2023-01-29T05:32:35.000Z,27.78
2023-01-29T05:37:34.000Z,26.37
2023-01-29T05:42:35.000Z,26.33
2023-01-29T05:47:35.000Z,25.82
2023-01-29T05:52:35.000Z,24.93
2023-01-29T05:57:34.000Z,23.14
2023-01-29T06:02:35.000Z,23.14
2023-01-29T06:07:34.000Z,23.73
2023-01-29T06:12:35.000Z,22.49
2023-01-29T06:17:34.000Z,23.68
2023-01-29T06:22:35.000Z,22.22
2023-01-29T06:27:34.000Z,21
2023-01-29T06:32:35.000Z,21.67
2023-01-29T06:37:34.000Z,20.08
2023-01-29T06:42:35.000Z,19.57
2023-01-29T06:47:34.000Z,18.33
2023-01-29T06:52:35.000Z,18.5
2023-01-29T06:57:34.000Z,16.53
2023-01-29T07:02:35.000Z,18.25
2023-01-29T07:07:34.000Z,24.06
2023-01-29T07:12:35.000Z,24.06
2023-01-29T07:17:35.000Z,27.3
2023-01-29T07:22:35.000Z,22.85
2023-01-29T07:27:34.000Z,22.59
2023-01-29T07:32:35.000Z,17.85
2023-01-29T07:37:35.000Z,16.57
2023-01-29T07:42:35.000Z,17.43
2023-01-29T07:47:35.000Z,16.7
2023-01-29T07:52:35.000Z,16.89
2023-01-29T07:57:34.000Z,16.46
2023-01-29T08:02:34.000Z,16.22
2023-01-29T08:12:34.000Z,18.48
2023-01-29T08:17:34.000Z,18.93
2023-01-29T08:22:35.000Z,18.4
2023-01-29T08:27:34.000Z,18.4
2023-01-29T08:32:35.000Z,18.99
2023-01-29T08:37:35.000Z,16.54
2023-01-29T08:42:35.000Z,17.17
2023-01-29T08:47:34.000Z,16.74
2023-01-29T08:52:35.000Z,16.91
2023-01-29T09:07:35.000Z,18.31
2023-01-29T09:12:35.000Z,17.67
2023-01-29T09:17:34.000Z,16.92
2023-01-29T09:22:35.000Z,16.68
2023-01-29T09:27:34.000Z,15.79
2023-01-29T09:33:03.000Z,17.1
2023-01-29T09:37:34.000Z,19.13
2023-01-29T09:42:35.000Z,17.74
2023-01-29T09:47:35.000Z,18.65
2023-01-29T09:52:34.000Z,19.8
2023-01-29T09:57:35.000Z,18.16
2023-01-29T10:02:34.000Z,20.79
2023-01-29T10:17:35.000Z,18.31
2023-01-29T10:22:35.000Z,17.89
2023-01-29T10:27:34.000Z,16.74
2023-01-29T10:32:35.000Z,14.37
2023-01-29T10:37:35.000Z,14.47
2023-01-29T10:42:34.000Z,14.38
2023-01-29T10:47:35.000Z,18.41
2023-01-29T10:52:35.000Z,16.79
2023-01-29T10:57:35.000Z,19.12
2023-01-29T11:02:35.000Z,15.56
2023-01-29T11:07:35.000Z,14.38
2023-01-29T11:12:35.000Z,12.4
2023-01-29T11:17:35.000Z,11.87
2023-01-29T11:27:35.000Z,12.99
2023-01-29T11:32:35.000Z,13.32
2023-01-29T11:42:35.000Z,14.61
2023-01-29T11:47:35.000Z,13.91
2023-01-29T11:57:35.000Z,12.1
2023-01-29T12:02:35.000Z,13.6
2023-01-29T12:07:34.000Z,15.57
2023-01-29T12:12:35.000Z,16.42
2023-01-29T12:17:34.000Z,15.64
2023-01-29T12:22:35.000Z,14.33
2023-01-29T12:27:34.000Z,13.64
2023-01-29T12:37:35.000Z,15.14
2023-01-29T12:42:35.000Z,12.27
2023-01-29T12:52:35.000Z,14.14
2023-01-29T12:57:34.000Z,17.28
2023-01-29T13:02:34.000Z,17.55
2023-01-29T13:07:34.000Z,16.86
2023-01-29T13:12:34.000Z,17.25
2023-01-29T13:17:35.000Z,16.16
2023-01-29T13:22:34.000Z,19.74
2023-01-29T13:27:34.000Z,19.74
2023-01-29T13:32:35.000Z,16.22
2023-01-29T13:37:34.000Z,16.89
2023-01-29T13:42:35.000Z,17.05
2023-01-29T13:47:35.000Z,19.13
2023-01-29T13:52:34.000Z,18.15
2023-01-29T13:57:34.000Z,20.18
2023-01-29T14:02:35.000Z,19.18
2023-01-29T14:07:34.000Z,21.48
2023-01-29T14:17:34.000Z,17.99
2023-01-29T14:22:35.000Z,21.29
2023-01-29T14:27:35.000Z,24.3
2023-01-29T14:32:35.000Z,23.81
2023-01-29T14:37:35.000Z,23.81
2023-01-29T14:42:35.000Z,21.76
2023-01-29T14:47:35.000Z,18.9
2023-01-29T14:57:35.000Z,19.03
2023-01-29T15:02:35.000Z,19.27
2023-01-29T15:07:35.000Z,18.35
2023-01-29T15:12:34.000Z,19.98
2023-01-29T15:17:34.000Z,18.29
2023-01-29T15:22:34.000Z,20.93
2023-01-29T15:32:35.000Z,21.41
2023-01-29T15:37:35.000Z,23.65
2023-01-29T15:42:35.000Z,22.73
2023-01-29T15:47:34.000Z,22.13
2023-01-29T15:52:35.000Z,22.7
2023-01-29T15:57:35.000Z,22.14
2023-01-29T16:02:35.000Z,22.14
2023-01-29T16:07:35.000Z,22.97
2023-01-29T16:17:35.000Z,23.46
2023-01-29T16:22:34.000Z,25.41
2023-01-29T16:27:35.000Z,28.47
2023-01-29T16:32:35.000Z,27.15
2023-01-29T16:37:35.000Z,29.65
2023-01-29T16:42:34.000Z,28.2
2023-01-29T16:47:35.000Z,29.6
2023-01-29T16:52:34.000Z,25.18
2023-01-29T16:57:35.000Z,27.39
2023-01-29T17:02:35.000Z,27.39
2023-01-29T17:07:34.000Z,27.76
2023-01-29T17:12:35.000Z,29.15
2023-01-29T17:17:34.000Z,27.94
2023-01-29T17:22:35.000Z,29.59
2023-01-29T17:27:34.000Z,28.87
2023-01-29T17:32:34.000Z,29.9
2023-01-29T17:37:35.000Z,30.15
2023-01-29T17:42:34.000Z,26.22
2023-01-29T17:47:35.000Z,25.6
2023-01-29T17:52:35.000Z,25.88
2023-01-29T17:57:35.000Z,27.23
2023-01-29T18:02:39.000Z,27.69
2023-01-29T18:07:34.000Z,27.42
2023-01-29T18:12:35.000Z,27.42
2023-01-29T18:17:34.000Z,27.47
2023-01-29T18:22:35.000Z,27.39
2023-01-29T18:37:35.000Z,31.04
2023-01-29T18:42:34.000Z,30.86
2023-01-29T18:47:35.000Z,30.35
2023-01-29T18:52:34.000Z,27.98
2023-01-29T18:58:46.000Z,29.08
2023-01-29T19:07:35.000Z,25.59
2023-01-29T19:12:35.000Z,25.59
2023-01-29T19:17:35.000Z,26.41
2023-01-29T19:27:35.000Z,26.65
2023-01-29T19:32:35.000Z,24.48
2023-01-29T19:42:34.000Z,22.73
2023-01-29T19:47:35.000Z,22.35
2023-01-29T19:52:34.000Z,25.18
2023-01-29T19:57:35.000Z,26.51
2023-01-29T20:02:34.000Z,27.79
2023-01-29T20:07:35.000Z,27.72
2023-01-29T20:12:35.000Z,26.5
2023-01-29T20:17:34.000Z,24.79
2023-01-29T20:22:35.000Z,26.5
2023-01-29T20:27:35.000Z,24.72
2023-01-29T20:32:34.000Z,24.72
2023-01-29T20:37:35.000Z,24.94
2023-01-29T20:42:35.000Z,24.48
2023-01-29T20:47:35.000Z,23.1
2023-01-29T20:52:35.000Z,25.2
2023-01-29T20:57:35.000Z,24.36
2023-01-29T21:02:35.000Z,26.72
2023-01-29T21:07:34.000Z,22.62
2023-01-29T21:12:35.000Z,26.44
2023-01-29T21:17:38.000Z,26.08
2023-01-29T21:22:35.000Z,26.85
2023-01-29T21:27:34.000Z,27.55
2023-01-29T21:32:35.000Z,27.88
2023-01-29T21:42:35.000Z,30.47
2023-01-29T21:47:34.000Z,30.47
2023-01-29T21:52:35.000Z,29.35
2023-01-29T21:57:35.000Z,28.97
2023-01-29T22:02:35.000Z,27.93
2023-01-29T22:07:35.000Z,27.53
2023-01-29T22:12:34.000Z,26.79
2023-01-29T22:17:34.000Z,27.44
2023-01-29T22:22:35.000Z,27.44
2023-01-29T22:37:34.000Z,28.21
2023-01-29T22:42:35.000Z,28.97
2023-01-29T22:47:34.000Z,28.62
2023-01-29T22:52:35.000Z,25.65
2023-01-29T22:57:34.000Z,28.31
2023-01-29T23:02:35.000Z,26.77
2023-01-29T23:07:35.000Z,28.14
2023-01-29T23:12:35.000Z,29.37
2023-01-29T23:17:34.000Z,29.94
2023-01-29T23:22:34.000Z,31.19
2023-01-29T23:27:35.000Z,28
2023-01-29T23:32:34.000Z,28
2023-01-29T23:37:35.000Z,27.65
2023-01-29T23:42:35.000Z,30.91
2023-01-29T23:47:34.000Z,30.51
2023-01-29T23:52:35.000Z,29.14
2023-01-29T23:57:34.000Z,28.47
